sensor_id;sensor_type;location;lat;lon;timestamp;pressure;altitude;pressure_sealevel;temperature;humidity
77452;BME280;66537;52.370;4.832;2023-05-16T00:01:39;102121.56;;;8.14;81.56
77452;BME280;66537;52.370;4.832;2023-05-16T00:04:04;102122.50;;;8.28;81.05
77452;BME280;66537;52.370;4.832;2023-05-16T00:06:30;102121.56;;;8.15;81.37
77452;BME280;66537;52.370;4.832;2023-05-16T00:08:56;102129.34;;;8.28;81.25
77452;BME280;66537;52.370;4.832;2023-05-16T00:11:21;102122.47;;;8.27;81.09
77452;BME280;66537;52.370;4.832;2023-05-16T00:13:47;102121.63;;;8.28;81.68
77452;BME280;66537;52.370;4.832;2023-05-16T00:16:13;102118.19;;;8.30;82.10
77452;BME280;66537;52.370;4.832;2023-05-16T00:18:38;102112.16;;;8.31;81.36
77452;BME280;66537;52.370;4.832;2023-05-16T00:21:04;102118.19;;;8.41;81.90
77452;BME280;66537;52.370;4.832;2023-05-16T00:23:30;102117.31;;;8.25;81.00
77452;BME280;66537;52.370;4.832;2023-05-16T00:25:56;102121.63;;;8.34;81.05
77452;BME280;66537;52.370;4.832;2023-05-16T00:28:21;102120.78;;;8.30;80.79
77452;BME280;66537;52.370;4.832;2023-05-16T00:30:47;102119.88;;;8.27;80.14
77452;BME280;66537;52.370;4.832;2023-05-16T00:33:12;102126.78;;;8.28;80.84
77452;BME280;66537;52.370;4.832;2023-05-16T00:35:38;102119.91;;;8.28;80.60
77452;BME280;66537;52.370;4.832;2023-05-16T00:38:03;102123.31;;;8.24;80.26
77452;BME280;66537;52.370;4.832;2023-05-16T00:40:29;102126.78;;;8.32;81.27
77452;BME280;66537;52.370;4.832;2023-05-16T00:42:54;102123.34;;;8.27;81.02
77452;BME280;66537;52.370;4.832;2023-05-16T00:45:20;102120.75;;;8.26;80.35
77452;BME280;66537;52.370;4.832;2023-05-16T00:47:45;102125.03;;;8.27;79.90
77452;BME280;66537;52.370;4.832;2023-05-16T00:50:10;102118.16;;;8.23;80.49
77452;BME280;66537;52.370;4.832;2023-05-16T00:52:36;102121.59;;;8.31;80.88
77452;BME280;66537;52.370;4.832;2023-05-16T00:55:02;102118.19;;;8.26;79.32
77452;BME280;66537;52.370;4.832;2023-05-16T00:57:28;102120.72;;;8.16;79.20
77452;BME280;66537;52.370;4.832;2023-05-16T00:59:54;102117.28;;;8.07;79.02
77452;BME280;66537;52.370;4.832;2023-05-16T01:02:19;102124.13;;;7.97;79.62
77452;BME280;66537;52.370;4.832;2023-05-16T01:04:45;102116.41;;;8.05;79.60
77452;BME280;66537;52.370;4.832;2023-05-16T01:07:12;102121.53;;;8.11;79.39
77452;BME280;66537;52.370;4.832;2023-05-16T01:09:39;102120.69;;;8.04;79.99
77452;BME280;66537;52.370;4.832;2023-05-16T01:12:14;102122.44;;;8.07;79.07
77452;BME280;66537;52.370;4.832;2023-05-16T01:20:39;102123.28;;;8.09;80.94
77452;BME280;66537;52.370;4.832;2023-05-16T01:28:41;102123.25;;;7.89;81.06
77452;BME280;66537;52.370;4.832;2023-05-16T01:31:08;102130.13;;;7.98;81.04
77452;BME280;66537;52.370;4.832;2023-05-16T01:33:33;102129.25;;;7.91;80.58
77452;BME280;66537;52.370;4.832;2023-05-16T01:36:21;102121.53;;;7.99;80.21
77452;BME280;66537;52.370;4.832;2023-05-16T01:39:16;102122.41;;;7.95;80.58
77452;BME280;66537;52.370;4.832;2023-05-16T01:44:18;102126.69;;;8.11;81.34
77452;BME280;66537;52.370;4.832;2023-05-16T01:46:47;102125.88;;;8.16;81.14
77452;BME280;66537;52.370;4.832;2023-05-16T01:49:19;102133.56;;;8.00;81.65
77452;BME280;66537;52.370;4.832;2023-05-16T01:51:51;102131.84;;;8.00;80.90
77452;BME280;66537;52.370;4.832;2023-05-16T01:54:18;102135.31;;;8.08;80.70
77452;BME280;66537;52.370;4.832;2023-05-16T01:56:51;102131.00;;;8.06;80.39
77452;BME280;66537;52.370;4.832;2023-05-16T01:59:19;102133.56;;;8.06;81.37
77452;BME280;66537;52.370;4.832;2023-05-16T02:01:45;102127.56;;;8.02;81.23
77452;BME280;66537;52.370;4.832;2023-05-16T02:04:11;102131.03;;;8.10;82.22
77452;BME280;66537;52.370;4.832;2023-05-16T02:06:37;102132.72;;;8.05;82.12
77452;BME280;66537;52.370;4.832;2023-05-16T02:09:03;102132.72;;;8.04;81.88
77452;BME280;66537;52.370;4.832;2023-05-16T02:11:28;102137.88;;;8.05;82.31
77452;BME280;66537;52.370;4.832;2023-05-16T02:13:53;102139.63;;;8.12;82.60
77452;BME280;66537;52.370;4.832;2023-05-16T02:16:19;102137.09;;;8.34;81.50
77452;BME280;66537;52.370;4.832;2023-05-16T02:18:44;102135.38;;;8.43;80.88
77452;BME280;66537;52.370;4.832;2023-05-16T02:21:10;102125.09;;;8.49;79.91
77452;BME280;66537;52.370;4.832;2023-05-16T02:23:35;102142.25;;;8.58;80.39
77452;BME280;66537;52.370;4.832;2023-05-16T02:26:00;102132.78;;;8.40;79.09
77452;BME280;66537;52.370;4.832;2023-05-16T02:28:26;102135.31;;;8.19;78.83
77452;BME280;66537;52.370;4.832;2023-05-16T02:31:01;102141.31;;;8.12;79.42
77452;BME280;66537;52.370;4.832;2023-05-16T02:33:27;102140.47;;;8.23;80.16
77452;BME280;66537;52.370;4.832;2023-05-16T02:35:53;102138.75;;;8.18;79.09
77452;BME280;66537;52.370;4.832;2023-05-16T02:38:19;102153.34;;;8.02;80.06
77452;BME280;66537;52.370;4.832;2023-05-16T02:40:46;102140.44;;;8.05;80.36
77452;BME280;66537;52.370;4.832;2023-05-16T02:46:53;102147.31;;;7.97;78.58
77452;BME280;66537;52.370;4.832;2023-05-16T02:49:18;102147.28;;;7.94;78.82
77452;BME280;66537;52.370;4.832;2023-05-16T02:51:44;102146.44;;;8.01;78.16
77452;BME280;66537;52.370;4.832;2023-05-16T02:54:09;102149.13;;;8.27;78.41
77452;BME280;66537;52.370;4.832;2023-05-16T02:56:35;102149.13;;;8.41;78.54
77452;BME280;66537;52.370;4.832;2023-05-16T02:59:01;102154.31;;;8.57;78.78
77452;BME280;66537;52.370;4.832;2023-05-16T03:01:28;102154.31;;;8.66;78.50
77452;BME280;66537;52.370;4.832;2023-05-16T03:03:53;102155.16;;;8.62;77.46
77452;BME280;66537;52.370;4.832;2023-05-16T03:06:18;102161.19;;;8.69;77.85
77452;BME280;66537;52.370;4.832;2023-05-16T03:08:44;102157.75;;;8.55;77.36
77452;BME280;66537;52.370;4.832;2023-05-16T03:11:09;102158.59;;;8.52;77.66
77452;BME280;66537;52.370;4.832;2023-05-16T03:13:35;102156.00;;;8.40;76.81
77452;BME280;66537;52.370;4.832;2023-05-16T03:16:00;102160.31;;;8.32;76.74
77452;BME280;66537;52.370;4.832;2023-05-16T03:18:26;102162.88;;;8.28;76.14
77452;BME280;66537;52.370;4.832;2023-05-16T03:20:51;102165.41;;;8.21;76.85
77452;BME280;66537;52.370;4.832;2023-05-16T03:23:20;102161.94;;;8.04;77.24
77452;BME280;66537;52.370;4.832;2023-05-16T03:25:46;102159.38;;;8.10;76.97
77452;BME280;66537;52.370;4.832;2023-05-16T03:28:11;102159.34;;;8.07;77.62
77452;BME280;66537;52.370;4.832;2023-05-16T03:30:37;102159.34;;;8.04;77.22
77452;BME280;66537;52.370;4.832;2023-05-16T03:33:03;102161.91;;;8.07;77.81
77452;BME280;66537;52.370;4.832;2023-05-16T03:35:31;102159.31;;;8.00;78.35
77452;BME280;66537;52.370;4.832;2023-05-16T03:37:57;102157.63;;;8.03;77.35
77452;BME280;66537;52.370;4.832;2023-05-16T03:40:22;102159.34;;;7.97;78.24
77452;BME280;66537;52.370;4.832;2023-05-16T03:42:48;102164.50;;;8.06;77.50
77452;BME280;66537;52.370;4.832;2023-05-16T03:45:13;102160.22;;;8.14;75.87
77452;BME280;66537;52.370;4.832;2023-05-16T03:47:38;102167.13;;;8.19;75.70
77452;BME280;66537;52.370;4.832;2023-05-16T03:50:04;102167.97;;;8.21;75.55
77452;BME280;66537;52.370;4.832;2023-05-16T03:52:30;102172.28;;;8.16;75.79
77452;BME280;66537;52.370;4.832;2023-05-16T03:54:55;102168.84;;;8.22;75.80
77452;BME280;66537;52.370;4.832;2023-05-16T03:57:21;102171.47;;;8.33;75.68
77452;BME280;66537;52.370;4.832;2023-05-16T03:59:46;102174.91;;;8.42;75.76
77452;BME280;66537;52.370;4.832;2023-05-16T04:02:12;102170.63;;;8.44;75.76
77452;BME280;66537;52.370;4.832;2023-05-16T04:04:37;102172.34;;;8.42;75.99
77452;BME280;66537;52.370;4.832;2023-05-16T04:07:03;102183.53;;;8.46;76.25
77452;BME280;66537;52.370;4.832;2023-05-16T04:09:28;102178.38;;;8.40;76.13
77452;BME280;66537;52.370;4.832;2023-05-16T04:11:54;102168.03;;;8.28;77.16
77452;BME280;66537;52.370;4.832;2023-05-16T04:14:22;102170.63;;;8.32;76.53
77452;BME280;66537;52.370;4.832;2023-05-16T04:16:47;102178.34;;;8.34;76.06
77452;BME280;66537;52.370;4.832;2023-05-16T04:19:12;102177.47;;;8.35;75.76
77452;BME280;66537;52.370;4.832;2023-05-16T04:21:38;102177.50;;;8.36;76.01
77452;BME280;66537;52.370;4.832;2023-05-16T04:24:03;102180.94;;;8.37;75.80
77452;BME280;66537;52.370;4.832;2023-05-16T04:26:29;102180.06;;;8.39;75.80
77452;BME280;66537;52.370;4.832;2023-05-16T04:28:54;102187.84;;;8.44;75.36
77452;BME280;66537;52.370;4.832;2023-05-16T04:31:20;102188.69;;;8.46;75.17
77452;BME280;66537;52.370;4.832;2023-05-16T04:33:46;102185.25;;;8.53;75.45
77452;BME280;66537;52.370;4.832;2023-05-16T04:36:11;102189.56;;;8.63;74.73
77452;BME280;66537;52.370;4.832;2023-05-16T04:38:36;102187.84;;;8.72;74.58
77452;BME280;66537;52.370;4.832;2023-05-16T04:41:02;102199.03;;;8.68;74.87
77452;BME280;66537;52.370;4.832;2023-05-16T04:43:28;102194.72;;;8.66;74.90
77452;BME280;66537;52.370;4.832;2023-05-16T04:45:53;102201.59;;;8.65;75.00
77452;BME280;66537;52.370;4.832;2023-05-16T04:48:18;102198.16;;;8.63;74.75
77452;BME280;66537;52.370;4.832;2023-05-16T04:50:44;102196.47;;;8.67;74.69
77452;BME280;66537;52.370;4.832;2023-05-16T04:53:09;102197.31;;;8.64;74.81
77452;BME280;66537;52.370;4.832;2023-05-16T04:55:35;102200.75;;;8.68;74.89
77452;BME280;66537;52.370;4.832;2023-05-16T04:58:00;102203.31;;;8.74;74.42
77452;BME280;66537;52.370;4.832;2023-05-16T05:00:25;102205.03;;;8.72;74.50
77452;BME280;66537;52.370;4.832;2023-05-16T05:02:51;102206.78;;;8.76;74.30
77452;BME280;66537;52.370;4.832;2023-05-16T05:05:16;102207.63;;;8.78;73.87
77452;BME280;66537;52.370;4.832;2023-05-16T05:07:41;102209.34;;;8.83;73.91
77452;BME280;66537;52.370;4.832;2023-05-16T05:10:07;102217.97;;;8.91;74.05
77452;BME280;66537;52.370;4.832;2023-05-16T05:12:34;102219.66;;;8.91;73.54
77452;BME280;66537;52.370;4.832;2023-05-16T05:14:59;102222.25;;;8.97;73.20
77452;BME280;66537;52.370;4.832;2023-05-16T05:17:25;102224.84;;;9.10;73.22
77452;BME280;66537;52.370;4.832;2023-05-16T05:19:50;102218.78;;;9.22;72.59
77452;BME280;66537;52.370;4.832;2023-05-16T05:22:16;102223.09;;;9.28;72.53
77452;BME280;66537;52.370;4.832;2023-05-16T05:24:41;102226.53;;;9.30;72.69
77452;BME280;66537;52.370;4.832;2023-05-16T05:27:07;102223.09;;;9.25;72.35
77452;BME280;66537;52.370;4.832;2023-05-16T05:29:32;102225.69;;;9.32;72.14
77452;BME280;66537;52.370;4.832;2023-05-16T05:31:58;102227.41;;;9.36;71.89
77452;BME280;66537;52.370;4.832;2023-05-16T05:34:23;102230.81;;;9.43;72.31
77452;BME280;66537;52.370;4.832;2023-05-16T05:36:48;102231.69;;;9.40;72.73
77452;BME280;66537;52.370;4.832;2023-05-16T05:39:14;102231.69;;;9.34;72.04
77452;BME280;66537;52.370;4.832;2023-05-16T05:41:39;102229.97;;;9.36;72.42
77452;BME280;66537;52.370;4.832;2023-05-16T05:44:05;102235.97;;;9.43;72.71
77452;BME280;66537;52.370;4.832;2023-05-16T05:46:31;102236.84;;;9.40;71.79
77452;BME280;66537;52.370;4.832;2023-05-16T05:48:58;102243.72;;;9.50;72.28
77452;BME280;66537;52.370;4.832;2023-05-16T05:51:23;102243.72;;;9.52;71.67
77452;BME280;66537;52.370;4.832;2023-05-16T05:53:50;102241.13;;;9.59;72.20
77452;BME280;66537;52.370;4.832;2023-05-16T05:56:15;102241.03;;;9.82;72.24
77452;BME280;66537;52.370;4.832;2023-05-16T05:58:40;102240.16;;;9.92;71.95
77452;BME280;66537;52.370;4.832;2023-05-16T06:01:06;102236.69;;;9.96;71.08
77452;BME280;66537;52.370;4.832;2023-05-16T06:03:31;102245.03;;;10.58;69.21
77452;BME280;66537;52.370;4.832;2023-05-16T06:05:57;102231.00;;;11.81;65.75
77452;BME280;66537;52.370;4.832;2023-05-16T06:08:22;102235.94;;;11.99;64.69
77452;BME280;66537;52.370;4.832;2023-05-16T06:10:47;102245.63;;;11.85;63.67
77452;BME280;66537;52.370;4.832;2023-05-16T06:13:13;102255.03;;;11.05;66.39
77452;BME280;66537;52.370;4.832;2023-05-16T06:15:38;102240.38;;;11.92;65.57
77452;BME280;66537;52.370;4.832;2023-05-16T06:18:04;102241.50;;;12.93;63.75
77452;BME280;66537;52.370;4.832;2023-05-16T06:20:29;102243.97;;;13.97;60.33
77452;BME280;66537;52.370;4.832;2023-05-16T06:22:54;102243.88;;;14.79;57.76
77452;BME280;66537;52.370;4.832;2023-05-16T06:25:20;102248.47;;;15.38;56.18
77452;BME280;66537;52.370;4.832;2023-05-16T06:27:46;102247.34;;;15.50;54.46
77452;BME280;66537;52.370;4.832;2023-05-16T06:30:11;102249.25;;;15.44;55.49
77452;BME280;66537;52.370;4.832;2023-05-16T06:32:37;102259.50;;;14.01;57.33
77452;BME280;66537;52.370;4.832;2023-05-16T06:35:02;102258.81;;;12.94;59.40
77452;BME280;66537;52.370;4.832;2023-05-16T06:37:28;102262.91;;;12.54;61.60
77452;BME280;66537;52.370;4.832;2023-05-16T06:39:53;102263.53;;;12.04;62.91
77452;BME280;66537;52.370;4.832;2023-05-16T06:42:18;102270.38;;;12.13;64.15
77452;BME280;66537;52.370;4.832;2023-05-16T06:44:45;102267.44;;;11.68;64.13
77452;BME280;66537;52.370;4.832;2023-05-16T06:47:10;102269.53;;;11.23;66.23
77452;BME280;66537;52.370;4.832;2023-05-16T06:49:36;102266.78;;;11.42;66.00
77452;BME280;66537;52.370;4.832;2023-05-16T06:52:01;102275.19;;;11.68;63.60
77452;BME280;66537;52.370;4.832;2023-05-16T06:54:27;102266.72;;;12.87;59.82
77452;BME280;66537;52.370;4.832;2023-05-16T06:56:52;102283.13;;;14.33;55.88
77452;BME280;66537;52.370;4.832;2023-05-16T06:59:17;102275.22;;;13.49;57.27
77452;BME280;66537;52.370;4.832;2023-05-16T07:01:43;102276.81;;;13.58;56.89
77452;BME280;66537;52.370;4.832;2023-05-16T07:04:08;102281.22;;;13.04;58.95
77452;BME280;66537;52.370;4.832;2023-05-16T07:06:33;102284.13;;;13.82;58.22
77452;BME280;66537;52.370;4.832;2023-05-16T07:08:59;102273.00;;;14.96;56.25
77452;BME280;66537;52.370;4.832;2023-05-16T07:11:26;102273.59;;;16.05;53.19
77452;BME280;66537;52.370;4.832;2023-05-16T07:13:51;102267.31;;;15.82;51.89
77452;BME280;66537;52.370;4.832;2023-05-16T07:16:16;102279.31;;;15.23;53.45
77452;BME280;66537;52.370;4.832;2023-05-16T07:18:42;102279.16;;;15.27;52.97
77452;BME280;66537;52.370;4.832;2023-05-16T07:21:07;102278.75;;;15.46;52.71
77452;BME280;66537;52.370;4.832;2023-05-16T07:23:33;102280.06;;;15.62;52.38
77452;BME280;66537;52.370;4.832;2023-05-16T07:25:58;102276.94;;;16.40;51.64
77452;BME280;66537;52.370;4.832;2023-05-16T07:28:24;102275.38;;;16.91;51.42
77452;BME280;66537;52.370;4.832;2023-05-16T07:30:49;102277.97;;;18.16;48.58
77452;BME280;66537;52.370;4.832;2023-05-16T07:33:14;102282.59;;;17.86;48.15
77452;BME280;66537;52.370;4.832;2023-05-16T07:35:40;102287.13;;;16.78;49.32
77452;BME280;66537;52.370;4.832;2023-05-16T07:38:05;102297.09;;;17.45;49.29
77452;BME280;66537;52.370;4.832;2023-05-16T07:40:31;102290.66;;;17.80;48.38
77452;BME280;66537;52.370;4.832;2023-05-16T07:42:56;102282.34;;;17.69;47.38
77452;BME280;66537;52.370;4.832;2023-05-16T07:45:21;102284.13;;;17.16;47.24
77452;BME280;66537;52.370;4.832;2023-05-16T07:47:47;102287.34;;;14.39;52.46
77452;BME280;66537;52.370;4.832;2023-05-16T07:50:12;102306.69;;;13.34;56.18
77452;BME280;66537;52.370;4.832;2023-05-16T07:52:38;102296.88;;;13.96;55.76
77452;BME280;66537;52.370;4.832;2023-05-16T07:55:03;102298.41;;;14.87;53.00
77452;BME280;66537;52.370;4.832;2023-05-16T07:57:29;102289.88;;;16.44;51.60
77452;BME280;66537;52.370;4.832;2023-05-16T07:59:54;102297.97;;;15.75;50.66
77452;BME280;66537;52.370;4.832;2023-05-16T08:02:22;102304.88;;;14.31;53.99
77452;BME280;66537;52.370;4.832;2023-05-16T08:04:49;102299.13;;;14.93;52.00
77452;BME280;66537;52.370;4.832;2023-05-16T08:07:14;102297.38;;;15.64;50.99
77452;BME280;66537;52.370;4.832;2023-05-16T08:09:40;102297.41;;;16.84;49.81
77452;BME280;66537;52.370;4.832;2023-05-16T08:12:06;102292.34;;;16.50;49.56
77452;BME280;66537;52.370;4.832;2023-05-16T08:14:31;102296.22;;;15.74;50.79
77452;BME280;66537;52.370;4.832;2023-05-16T08:17:00;102308.00;;;14.04;54.75
77452;BME280;66537;52.370;4.832;2023-05-16T08:19:26;102302.28;;;16.07;53.93
77452;BME280;66537;52.370;4.832;2023-05-16T08:21:51;102305.88;;;16.90;51.38
77452;BME280;66537;52.370;4.832;2023-05-16T08:24:17;102296.22;;;16.65;49.96
77452;BME280;66537;52.370;4.832;2023-05-16T08:26:42;102298.03;;;16.03;51.23
77452;BME280;66537;52.370;4.832;2023-05-16T08:29:07;102307.38;;;14.75;54.30
77452;BME280;66537;52.370;4.832;2023-05-16T08:31:33;102299.00;;;14.63;55.85
77452;BME280;66537;52.370;4.832;2023-05-16T08:33:58;102312.88;;;14.62;55.62
77452;BME280;66537;52.370;4.832;2023-05-16T08:36:25;102311.72;;;13.91;55.31
77452;BME280;66537;52.370;4.832;2023-05-16T08:38:51;102313.47;;;13.43;57.17
77452;BME280;66537;52.370;4.832;2023-05-16T08:41:16;102313.00;;;13.18;57.75
77452;BME280;66537;52.370;4.832;2023-05-16T08:43:41;102316.19;;;14.30;56.31
77452;BME280;66537;52.370;4.832;2023-05-16T08:46:07;102304.81;;;15.79;52.99
77452;BME280;66537;52.370;4.832;2023-05-16T08:48:33;102314.16;;;15.19;52.64
77452;BME280;66537;52.370;4.832;2023-05-16T08:51:00;102317.09;;;14.27;53.89
77452;BME280;66537;52.370;4.832;2023-05-16T08:53:31;102321.97;;;13.52;56.01
77452;BME280;66537;52.370;4.832;2023-05-16T08:56:02;102313.69;;;14.24;55.71
77452;BME280;66537;52.370;4.832;2023-05-16T08:58:28;102316.13;;;15.46;52.51
77452;BME280;66537;52.370;4.832;2023-05-16T09:00:55;102318.13;;;16.88;50.14
77452;BME280;66537;52.370;4.832;2023-05-16T09:03:20;102306.22;;;16.21;49.83
77452;BME280;66537;52.370;4.832;2023-05-16T09:05:48;102319.25;;;15.59;50.69
77452;BME280;66537;52.370;4.832;2023-05-16T09:08:14;102320.75;;;15.69;51.11
77452;BME280;66537;52.370;4.832;2023-05-16T09:10:39;102316.91;;;16.43;49.85
77452;BME280;66537;52.370;4.832;2023-05-16T09:13:05;102312.22;;;16.25;48.81
77452;BME280;66537;52.370;4.832;2023-05-16T09:15:31;102315.72;;;16.82;50.30
77452;BME280;66537;52.370;4.832;2023-05-16T09:17:59;102316.50;;;17.12;48.58
77452;BME280;66537;52.370;4.832;2023-05-16T09:20:25;102324.19;;;17.43;48.62
77452;BME280;66537;52.370;4.832;2023-05-16T09:22:57;102316.19;;;17.98;46.15
77452;BME280;66537;52.370;4.832;2023-05-16T09:25:25;102318.94;;;17.70;46.33
77452;BME280;66537;52.370;4.832;2023-05-16T09:27:58;102316.72;;;18.31;47.48
77452;BME280;66537;52.370;4.832;2023-05-16T09:30:29;102321.34;;;17.24;47.80
77452;BME280;66537;52.370;4.832;2023-05-16T09:32:55;102319.81;;;17.17;47.93
77452;BME280;66537;52.370;4.832;2023-05-16T09:35:21;102315.41;;;17.96;45.68
77452;BME280;66537;52.370;4.832;2023-05-16T09:37:48;102316.81;;;18.52;45.56
77452;BME280;66537;52.370;4.832;2023-05-16T09:40:14;102322.19;;;18.92;44.28
77452;BME280;66537;52.370;4.832;2023-05-16T09:42:41;102326.03;;;16.87;48.02
77452;BME280;66537;52.370;4.832;2023-05-16T09:45:11;102320.50;;;16.96;48.02
77452;BME280;66537;52.370;4.832;2023-05-16T09:47:37;102323.75;;;16.18;50.00
77452;BME280;66537;52.370;4.832;2023-05-16T09:50:10;102330.22;;;16.92;48.56
77452;BME280;66537;52.370;4.832;2023-05-16T09:52:36;102327.97;;;17.86;45.88
77452;BME280;66537;52.370;4.832;2023-05-16T09:55:02;102328.81;;;16.22;48.53
77452;BME280;66537;52.370;4.832;2023-05-16T09:57:30;102325.94;;;16.90;48.59
77452;BME280;66537;52.370;4.832;2023-05-16T09:59:58;102330.00;;;16.72;48.72
77452;BME280;66537;52.370;4.832;2023-05-16T10:02:24;102330.53;;;16.23;47.89
77452;BME280;66537;52.370;4.832;2023-05-16T10:04:50;102336.69;;;16.52;47.22
77452;BME280;66537;52.370;4.832;2023-05-16T10:07:15;102332.81;;;17.20;47.48
77452;BME280;66537;52.370;4.832;2023-05-16T10:09:42;102334.81;;;16.86;48.54
77452;BME280;66537;52.370;4.832;2023-05-16T10:12:10;102357.28;;;16.90;49.62
77452;BME280;66537;52.370;4.832;2023-05-16T10:14:37;102338.72;;;16.11;50.45
77452;BME280;66537;52.370;4.832;2023-05-16T10:17:10;102344.09;;;16.94;47.99
77452;BME280;66537;52.370;4.832;2023-05-16T10:19:38;102328.22;;;16.73;48.04
77452;BME280;66537;52.370;4.832;2023-05-16T10:22:05;102335.34;;;15.42;50.11
77452;BME280;66537;52.370;4.832;2023-05-16T10:24:47;102343.81;;;16.16;49.88
77452;BME280;66537;52.370;4.832;2023-05-16T10:27:16;102341.06;;;16.51;49.91
77452;BME280;66537;52.370;4.832;2023-05-16T10:29:42;102333.56;;;16.97;47.85
77452;BME280;66537;52.370;4.832;2023-05-16T10:32:08;102340.25;;;16.48;49.12
77452;BME280;66537;52.370;4.832;2023-05-16T10:34:34;102340.38;;;14.76;52.39
77452;BME280;66537;52.370;4.832;2023-05-16T10:37:00;102349.59;;;14.07;54.05
77452;BME280;66537;52.370;4.832;2023-05-16T10:39:27;102332.97;;;15.67;52.71
77452;BME280;66537;52.370;4.832;2023-05-16T10:41:53;102331.06;;;16.93;50.48
77452;BME280;66537;52.370;4.832;2023-05-16T10:44:19;102324.56;;;16.78;48.88
77452;BME280;66537;52.370;4.832;2023-05-16T10:46:46;102335.63;;;16.59;49.56
77452;BME280;66537;52.370;4.832;2023-05-16T10:49:22;102332.06;;;16.61;50.00
77452;BME280;66537;52.370;4.832;2023-05-16T10:52:08;102313.81;;;16.60;49.60
77452;BME280;66537;52.370;4.832;2023-05-16T10:54:38;102335.47;;;15.71;51.44
77452;BME280;66537;52.370;4.832;2023-05-16T10:57:14;102330.25;;;15.71;51.58
77452;BME280;66537;52.370;4.832;2023-05-16T10:59:49;102337.03;;;15.45;52.45
77452;BME280;66537;52.370;4.832;2023-05-16T11:02:32;102330.84;;;15.81;51.70
77452;BME280;66537;52.370;4.832;2023-05-16T11:05:00;102325.84;;;15.73;51.58
77452;BME280;66537;52.370;4.832;2023-05-16T11:07:33;102330.16;;;15.74;50.53
77452;BME280;66537;52.370;4.832;2023-05-16T11:10:14;102327.19;;;14.82;50.44
77452;BME280;66537;52.370;4.832;2023-05-16T11:12:44;102331.50;;;14.83;52.09
77452;BME280;66537;52.370;4.832;2023-05-16T11:15:23;102326.13;;;14.53;52.72
77452;BME280;66537;52.370;4.832;2023-05-16T11:17:49;102330.03;;;14.32;51.13
77452;BME280;66537;52.370;4.832;2023-05-16T11:20:29;102329.66;;;15.92;47.97
77452;BME280;66537;52.370;4.832;2023-05-16T11:25:52;102325.69;;;15.46;50.14
77452;BME280;66537;52.370;4.832;2023-05-16T11:28:18;102330.63;;;15.19;49.97
77452;BME280;66537;52.370;4.832;2023-05-16T11:30:46;102330.19;;;15.02;51.63
77452;BME280;66537;52.370;4.832;2023-05-16T11:33:12;102330.31;;;15.33;51.53
77452;BME280;66537;52.370;4.832;2023-05-16T11:35:38;102330.34;;;15.99;50.04
77452;BME280;66537;52.370;4.832;2023-05-16T11:38:03;102328.03;;;16.50;49.06
77452;BME280;66537;52.370;4.832;2023-05-16T11:40:29;102340.69;;;16.63;47.56
77452;BME280;66537;52.370;4.832;2023-05-16T11:42:58;102339.66;;;16.69;47.91
77452;BME280;66537;52.370;4.832;2023-05-16T11:45:24;102336.00;;;16.45;48.75
77452;BME280;66537;52.370;4.832;2023-05-16T11:47:50;102344.44;;;16.84;48.90
77452;BME280;66537;52.370;4.832;2023-05-16T11:50:17;102348.00;;;16.21;48.43
77452;BME280;66537;52.370;4.832;2023-05-16T11:52:53;102328.44;;;16.65;49.30
77452;BME280;66537;52.370;4.832;2023-05-16T11:55:21;102332.19;;;16.26;47.95
77452;BME280;66537;52.370;4.832;2023-05-16T11:57:49;102335.88;;;16.50;48.09
77452;BME280;66537;52.370;4.832;2023-05-16T12:00:20;102335.66;;;16.57;48.12
77452;BME280;66537;52.370;4.832;2023-05-16T12:02:47;102333.00;;;16.28;47.05
77452;BME280;66537;52.370;4.832;2023-05-16T12:05:13;102342.19;;;16.10;47.88
77452;BME280;66537;52.370;4.832;2023-05-16T12:07:39;102338.22;;;15.30;49.99
77452;BME280;66537;52.370;4.832;2023-05-16T12:10:09;102332.75;;;15.39;49.43
77452;BME280;66537;52.370;4.832;2023-05-16T12:12:35;102341.38;;;15.44;50.09
77452;BME280;66537;52.370;4.832;2023-05-16T12:15:03;102336.13;;;15.09;49.52
77452;BME280;66537;52.370;4.832;2023-05-16T12:17:28;102330.69;;;15.18;49.94
77452;BME280;66537;52.370;4.832;2023-05-16T12:19:55;102341.84;;;15.60;50.32
77452;BME280;66537;52.370;4.832;2023-05-16T12:22:20;102339.22;;;15.24;49.78
77452;BME280;66537;52.370;4.832;2023-05-16T12:24:46;102341.66;;;14.95;49.50
77452;BME280;66537;52.370;4.832;2023-05-16T12:27:11;102326.63;;;15.06;49.58
77452;BME280;66537;52.370;4.832;2023-05-16T12:29:37;102334.06;;;15.21;50.82
77452;BME280;66537;52.370;4.832;2023-05-16T12:32:03;102333.72;;;14.63;50.56
77452;BME280;66537;52.370;4.832;2023-05-16T12:34:29;102335.66;;;14.92;50.40
77452;BME280;66537;52.370;4.832;2023-05-16T12:36:54;102338.78;;;15.07;49.16
77452;BME280;66537;52.370;4.832;2023-05-16T12:39:20;102344.13;;;14.62;50.28
77452;BME280;66537;52.370;4.832;2023-05-16T12:41:47;102347.88;;;14.50;50.56
77452;BME280;66537;52.370;4.832;2023-05-16T12:44:16;102344.66;;;14.77;50.36
77452;BME280;66537;52.370;4.832;2023-05-16T12:46:45;102343.34;;;14.98;49.59
77452;BME280;66537;52.370;4.832;2023-05-16T12:49:11;102330.91;;;15.46;48.96
77452;BME280;66537;52.370;4.832;2023-05-16T12:51:38;102343.78;;;15.52;48.26
77452;BME280;66537;52.370;4.832;2023-05-16T12:54:10;102338.78;;;15.76;48.51
77452;BME280;66537;52.370;4.832;2023-05-16T12:56:40;102334.66;;;15.69;47.77
77452;BME280;66537;52.370;4.832;2023-05-16T12:59:06;102329.88;;;15.16;47.15
77452;BME280;66537;52.370;4.832;2023-05-16T13:01:32;102335.59;;;14.95;48.24
77452;BME280;66537;52.370;4.832;2023-05-16T13:03:57;102334.06;;;15.23;47.78
77452;BME280;66537;52.370;4.832;2023-05-16T13:06:23;102338.81;;;15.06;47.83
77452;BME280;66537;52.370;4.832;2023-05-16T13:08:48;102342.94;;;15.14;47.26
77452;BME280;66537;52.370;4.832;2023-05-16T13:11:14;102333.94;;;14.91;47.97
77452;BME280;66537;52.370;4.832;2023-05-16T13:13:39;102336.22;;;15.04;47.47